sensor_id;sensor_type;location;lat;lon;timestamp;pressure;altitude;pressure_sealevel;temperature;humidity
55044;BME280;54902;50.420;18.854;2023-06-01T00:00:09;101599.18;;;11.46;49.21
55044;BME280;54902;50.420;18.854;2023-06-01T00:00:41;101591.95;;;11.45;49.31
55044;BME280;54902;50.420;18.854;2023-06-01T00:01:12;101590.20;;;11.44;49.29
55044;BME280;54902;50.420;18.854;2023-06-01T00:01:44;101601.14;;;11.44;49.25
55044;BME280;54902;50.420;18.854;2023-06-01T00:02:15;101598.53;;;11.43;49.18
55044;BME280;54902;50.420;18.854;2023-06-01T00:02:46;101597.66;;;11.42;49.17
55044;BME280;54902;50.420;18.854;2023-06-01T00:03:17;101595.91;;;11.41;49.17
55044;BME280;54902;50.420;18.854;2023-06-01T00:03:48;101592.40;;;11.39;49.17
55044;BME280;54902;50.420;18.854;2023-06-01T00:04:19;101594.27;;;11.39;49.20
55044;BME280;54902;50.420;18.854;2023-06-01T00:04:49;101597.00;;;11.39;49.25
55044;BME280;54902;50.420;18.854;2023-06-01T00:05:20;101593.41;;;11.38;49.31
55044;BME280;54902;50.420;18.854;2023-06-01T00:05:51;101591.65;;;11.37;49.35
55044;BME280;54902;50.420;18.854;2023-06-01T00:06:22;101589.89;;;11.36;49.35
55044;BME280;54902;50.420;18.854;2023-06-01T00:06:53;101595.36;;;11.36;49.37
55044;BME280;54902;50.420;18.854;2023-06-01T00:08:13;101596.35;;;11.35;49.38
55044;BME280;54902;50.420;18.854;2023-06-01T00:08:22;101588.25;;;11.34;49.40
55044;BME280;54902;50.420;18.854;2023-06-01T00:08:58;101592.87;;;11.33;49.38
55044;BME280;54902;50.420;18.854;2023-06-01T00:09:31;101593.84;;;11.32;49.37
55044;BME280;54902;50.420;18.854;2023-06-01T00:10:02;101592.09;;;11.31;49.31
55044;BME280;54902;50.420;18.854;2023-06-01T00:10:33;101594.83;;;11.31;49.31
55044;BME280;54902;50.420;18.854;2023-06-01T00:11:04;101594.95;;;11.30;49.32
55044;BME280;54902;50.420;18.854;2023-06-01T00:11:35;101593.19;;;11.29;49.33
55044;BME280;54902;50.420;18.854;2023-06-01T00:12:07;101590.45;;;11.29;49.38
55044;BME280;54902;50.420;18.854;2023-06-01T00:12:38;101591.59;;;11.26;49.37
55044;BME280;54902;50.420;18.854;2023-06-01T00:13:10;101593.30;;;11.27;49.41
55044;BME280;54902;50.420;18.854;2023-06-01T00:13:40;101590.69;;;11.26;49.44
55044;BME280;54902;50.420;18.854;2023-06-01T00:14:11;101595.30;;;11.25;49.46
55044;BME280;54902;50.420;18.854;2023-06-01T00:14:42;101593.54;;;11.24;49.46
55044;BME280;54902;50.420;18.854;2023-06-01T00:15:13;101592.67;;;11.24;49.47
55044;BME280;54902;50.420;18.854;2023-06-01T00:15:45;101597.25;;;11.23;49.51
55044;BME280;54902;50.420;18.854;2023-06-01T00:16:16;101601.87;;;11.23;49.52
55044;BME280;54902;50.420;18.854;2023-06-01T00:16:47;101596.51;;;11.21;49.47
55044;BME280;54902;50.420;18.854;2023-06-01T00:17:20;101588.30;;;11.21;49.44
55044;BME280;54902;50.420;18.854;2023-06-01T00:17:53;101598.34;;;11.21;49.39
55044;BME280;54902;50.420;18.854;2023-06-01T00:18:27;101592.88;;;11.21;49.37
55044;BME280;54902;50.420;18.854;2023-06-01T00:18:58;101595.73;;;11.19;49.37
55044;BME280;54902;50.420;18.854;2023-06-01T00:19:31;101594.01;;;11.18;49.39
55044;BME280;54902;50.420;18.854;2023-06-01T00:20:03;101594.01;;;11.18;49.42
55044;BME280;54902;50.420;18.854;2023-06-01T00:20:39;101593.12;;;11.18;49.46
55044;BME280;54902;50.420;18.854;2023-06-01T00:21:10;101594.01;;;11.18;49.46
55044;BME280;54902;50.420;18.854;2023-06-01T00:21:41;101597.72;;;11.17;49.48
55044;BME280;54902;50.420;18.854;2023-06-01T00:22:12;101591.37;;;11.17;49.52
55044;BME280;54902;50.420;18.854;2023-06-01T00:22:43;101594.99;;;11.17;49.57
55044;BME280;54902;50.420;18.854;2023-06-01T00:23:14;101590.49;;;11.16;49.59
55044;BME280;54902;50.420;18.854;2023-06-01T00:23:50;101596.84;;;11.17;49.64
55044;BME280;54902;50.420;18.854;2023-06-01T00:24:21;101593.23;;;11.16;49.67
55044;BME280;54902;50.420;18.854;2023-06-01T00:24:56;101596.95;;;11.15;49.66
55044;BME280;54902;50.420;18.854;2023-06-01T00:25:27;101599.68;;;11.15;49.64
55044;BME280;54902;50.420;18.854;2023-06-01T00:25:58;101596.08;;;11.15;49.66
55044;BME280;54902;50.420;18.854;2023-06-01T00:26:29;101585.27;;;11.13;49.74
55044;BME280;54902;50.420;18.854;2023-06-01T00:27:03;101589.83;;;11.13;49.68
55044;BME280;54902;50.420;18.854;2023-06-01T00:27:35;101591.71;;;11.12;49.64
55044;BME280;54902;50.420;18.854;2023-06-01T00:28:06;101591.84;;;11.11;49.54
55044;BME280;54902;50.420;18.854;2023-06-01T00:28:37;101588.11;;;11.12;49.49
55044;BME280;54902;50.420;18.854;2023-06-01T00:29:08;101588.20;;;11.10;49.41
55044;BME280;54902;50.420;18.854;2023-06-01T00:29:39;101596.40;;;11.10;49.37
55044;BME280;54902;50.420;18.854;2023-06-01T00:30:11;101594.67;;;11.09;49.34
55044;BME280;54902;50.420;18.854;2023-06-01T00:30:42;101592.92;;;11.08;49.32
55044;BME280;54902;50.420;18.854;2023-06-01T00:31:13;101592.92;;;11.08;49.28
55044;BME280;54902;50.420;18.854;2023-06-01T00:31:44;101597.53;;;11.08;49.25
55044;BME280;54902;50.420;18.854;2023-06-01T00:32:15;101592.92;;;11.08;49.23
55044;BME280;54902;50.420;18.854;2023-06-01T00:32:46;101586.79;;;11.05;49.12
55044;BME280;54902;50.420;18.854;2023-06-01T00:33:17;101598.39;;;11.08;49.35
55044;BME280;54902;50.420;18.854;2023-06-01T00:33:48;101594.67;;;11.09;49.59
55044;BME280;54902;50.420;18.854;2023-06-01T00:34:18;101590.19;;;11.08;49.68
55044;BME280;54902;50.420;18.854;2023-06-01T00:34:50;101590.07;;;11.10;49.74
55044;BME280;54902;50.420;18.854;2023-06-01T00:35:21;101593.67;;;11.10;49.75
55044;BME280;54902;50.420;18.854;2023-06-01T00:35:52;101591.84;;;11.11;49.74
55044;BME280;54902;50.420;18.854;2023-06-01T00:36:23;101590.93;;;11.10;49.65
55044;BME280;54902;50.420;18.854;2023-06-01T00:36:54;101594.45;;;11.12;49.70
55044;BME280;54902;50.420;18.854;2023-06-01T00:37:25;101598.04;;;11.13;49.73
55044;BME280;54902;50.420;18.854;2023-06-01T00:37:56;101599.91;;;11.12;49.80
55044;BME280;54902;50.420;18.854;2023-06-01T00:38:27;101603.51;;;11.13;49.86
55044;BME280;54902;50.420;18.854;2023-06-01T00:38:59;101596.20;;;11.13;49.90
55044;BME280;54902;50.420;18.854;2023-06-01T00:39:34;101600.66;;;11.14;49.90
55044;BME280;54902;50.420;18.854;2023-06-01T00:40:05;101600.66;;;11.14;49.89
55044;BME280;54902;50.420;18.854;2023-06-01T00:40:37;101606.13;;;11.14;49.84
55044;BME280;54902;50.420;18.854;2023-06-01T00:41:08;101600.66;;;11.14;49.92
55044;BME280;54902;50.420;18.854;2023-06-01T00:41:38;101597.92;;;11.14;49.95
55044;BME280;54902;50.420;18.854;2023-06-01T00:42:09;101599.80;;;11.14;49.83
55044;BME280;54902;50.420;18.854;2023-06-01T00:42:40;101598.81;;;11.15;49.88
55044;BME280;54902;50.420;18.854;2023-06-01T00:43:11;101604.40;;;11.13;49.90
55044;BME280;54902;50.420;18.854;2023-06-01T00:43:42;101598.93;;;11.13;49.94
55044;BME280;54902;50.420;18.854;2023-06-01T00:44:13;101597.05;;;11.14;49.83
55044;BME280;54902;50.420;18.854;2023-06-01T00:44:44;101596.20;;;11.13;49.86
55044;BME280;54902;50.420;18.854;2023-06-01T00:45:15;101589.83;;;11.13;49.91
55044;BME280;54902;50.420;18.854;2023-06-01T00:45:46;101590.73;;;11.13;49.96
55044;BME280;54902;50.420;18.854;2023-06-01T00:46:17;101594.45;;;11.12;49.92
55044;BME280;54902;50.420;18.854;2023-06-01T00:46:50;101599.91;;;11.12;49.92
55044;BME280;54902;50.420;18.854;2023-06-01T00:47:22;101593.58;;;11.12;49.99
55044;BME280;54902;50.420;18.854;2023-06-01T00:47:53;101601.67;;;11.13;50.03
55044;BME280;54902;50.420;18.854;2023-06-01T00:48:24;101595.42;;;11.11;49.96
55044;BME280;54902;50.420;18.854;2023-06-01T00:48:56;101599.91;;;11.12;49.89
55044;BME280;54902;50.420;18.854;2023-06-01T00:49:28;101600.89;;;11.11;49.91
55044;BME280;54902;50.420;18.854;2023-06-01T00:49:59;101598.16;;;11.11;49.92
55044;BME280;54902;50.420;18.854;2023-06-01T00:50:30;101595.42;;;11.11;49.85
55044;BME280;54902;50.420;18.854;2023-06-01T00:51:01;101589.20;;;11.09;49.78
55044;BME280;54902;50.420;18.854;2023-06-01T00:51:33;101594.67;;;11.09;49.77
55044;BME280;54902;50.420;18.854;2023-06-01T00:52:06;101600.15;;;11.09;49.82
55044;BME280;54902;50.420;18.854;2023-06-01T00:52:37;101594.67;;;11.09;49.87
55044;BME280;54902;50.420;18.854;2023-06-01T00:53:16;101595.66;;;11.08;49.89
55044;BME280;54902;50.420;18.854;2023-06-01T00:53:48;101599.26;;;11.09;50.02
55044;BME280;54902;50.420;18.854;2023-06-01T00:54:20;101598.39;;;11.08;50.03
55044;BME280;54902;50.420;18.854;2023-06-01T00:54:51;101597.53;;;11.08;50.04
55044;BME280;54902;50.420;18.854;2023-06-01T00:55:22;101601.13;;;11.08;50.10
55044;BME280;54902;50.420;18.854;2023-06-01T00:55:53;101600.27;;;11.08;50.10
55044;BME280;54902;50.420;18.854;2023-06-01T00:56:26;101593.90;;;11.07;50.13
55044;BME280;54902;50.420;18.854;2023-06-01T00:56:59;101592.14;;;11.06;50.14
55044;BME280;54902;50.420;18.854;2023-06-01T00:57:33;101594.88;;;11.06;50.24
55044;BME280;54902;50.420;18.854;2023-06-01T00:58:06;101598.62;;;11.05;50.30
55044;BME280;54902;50.420;18.854;2023-06-01T00:58:39;101594.99;;;11.05;50.35
55044;BME280;54902;50.420;18.854;2023-06-01T00:59:11;101595.10;;;11.03;50.31
55044;BME280;54902;50.420;18.854;2023-06-01T00:59:43;101595.10;;;11.03;50.27
55044;BME280;54902;50.420;18.854;2023-06-01T01:00:14;101600.57;;;11.03;50.25
55044;BME280;54902;50.420;18.854;2023-06-01T01:00:45;101606.04;;;11.03;50.24
55044;BME280;54902;50.420;18.854;2023-06-01T01:01:18;101598.81;;;11.02;50.21
55044;BME280;54902;50.420;18.854;2023-06-01T01:01:49;101602.57;;;11.02;50.25
55044;BME280;54902;50.420;18.854;2023-06-01T01:02:23;101599.05;;;11.00;50.23
55044;BME280;54902;50.420;18.854;2023-06-01T01:02:54;101596.31;;;11.00;50.22
55044;BME280;54902;50.420;18.854;2023-06-01T01:03:28;101591.84;;;10.99;50.23
55044;BME280;54902;50.420;18.854;2023-06-01T01:04:02;101592.84;;;10.98;50.30
55044;BME280;54902;50.420;18.854;2023-06-01T01:04:33;101593.82;;;10.97;50.27
55044;BME280;54902;50.420;18.854;2023-06-01T01:05:06;101592.06;;;10.96;50.26
55044;BME280;54902;50.420;18.854;2023-06-01T01:05:40;101589.44;;;10.94;50.21
55044;BME280;54902;50.420;18.854;2023-06-01T01:06:21;101576.55;;;10.84;50.19
55044;BME280;54902;50.420;18.854;2023-06-01T01:07:06;101592.41;;;10.91;50.24
55044;BME280;54902;50.420;18.854;2023-06-01T01:08:36;101592.60;;;10.88;50.25
55044;BME280;54902;50.420;18.854;2023-06-01T01:10:13;101589.24;;;10.85;50.39
55044;BME280;54902;50.420;18.854;2023-06-01T01:10:40;101592.95;;;10.84;50.33
55044;BME280;54902;50.420;18.854;2023-06-01T01:11:20;101589.44;;;10.82;50.37
55044;BME280;54902;50.420;18.854;2023-06-01T01:13:20;101593.38;;;10.78;50.47
55044;BME280;54902;50.420;18.854;2023-06-01T01:13:23;101592.40;;;10.79;50.44
55044;BME280;54902;50.420;18.854;2023-06-01T01:14:02;101589.89;;;10.76;50.59
55044;BME280;54902;50.420;18.854;2023-06-01T01:14:49;101596.33;;;10.75;50.63
55044;BME280;54902;50.420;18.854;2023-06-01T01:15:29;101589.12;;;10.74;50.62
55044;BME280;54902;50.420;18.854;2023-06-01T01:16:11;101592.85;;;10.73;50.55
55044;BME280;54902;50.420;18.854;2023-06-01T01:16:50;101586.60;;;10.71;50.53
55044;BME280;54902;50.420;18.854;2023-06-01T01:17:35;101594.82;;;10.71;50.53
55044;BME280;54902;50.420;18.854;2023-06-01T01:19:09;101590.44;;;10.68;50.57
55044;BME280;54902;50.420;18.854;2023-06-01T01:20:37;101579.62;;;10.67;50.62
55044;BME280;54902;50.420;18.854;2023-06-01T01:21:09;101580.59;;;10.66;50.59
55044;BME280;54902;50.420;18.854;2023-06-01T01:24:14;101578.20;;;10.61;50.58
55044;BME280;54902;50.420;18.854;2023-06-01T01:28:32;101574.17;;;10.54;50.62
55044;BME280;54902;50.420;18.854;2023-06-01T01:29:09;101570.65;;;10.52;50.59
55044;BME280;54902;50.420;18.854;2023-06-01T01:29:42;101572.53;;;10.52;50.61
55044;BME280;54902;50.420;18.854;2023-06-01T01:30:15;101578.97;;;10.51;50.63
55044;BME280;54902;50.420;18.854;2023-06-01T01:30:46;101571.75;;;10.50;50.63
55044;BME280;54902;50.420;18.854;2023-06-01T01:31:23;101569.99;;;10.49;50.68
55044;BME280;54902;50.420;18.854;2023-06-01T01:31:55;101566.73;;;10.44;50.65
55044;BME280;54902;50.420;18.854;2023-06-01T01:32:26;101566.50;;;10.47;50.75
55044;BME280;54902;50.420;18.854;2023-06-01T01:32:58;101573.81;;;10.46;50.74
55044;BME280;54902;50.420;18.854;2023-06-01T01:33:32;101570.22;;;10.46;50.80
55044;BME280;54902;50.420;18.854;2023-06-01T01:34:03;101564.86;;;10.44;50.88
55044;BME280;54902;50.420;18.854;2023-06-01T01:34:35;101566.73;;;10.44;50.85
55044;BME280;54902;50.420;18.854;2023-06-01T01:35:07;101571.30;;;10.43;50.81
55044;BME280;54902;50.420;18.854;2023-06-01T01:35:39;101568.68;;;10.42;50.83
55044;BME280;54902;50.420;18.854;2023-06-01T01:36:12;101568.68;;;10.42;50.85
55044;BME280;54902;50.420;18.854;2023-06-01T01:36:43;101562.43;;;10.40;50.85
55044;BME280;54902;50.420;18.854;2023-06-01T01:37:14;101560.71;;;10.39;50.82
55044;BME280;54902;50.420;18.854;2023-06-01T01:37:51;101565.39;;;10.37;50.87
55044;BME280;54902;50.420;18.854;2023-06-01T01:38:22;101568.13;;;10.37;50.95
55044;BME280;54902;50.420;18.854;2023-06-01T01:38:53;101560.90;;;10.36;50.94
55044;BME280;54902;50.420;18.854;2023-06-01T01:39:24;101569.10;;;10.36;50.92
55044;BME280;54902;50.420;18.854;2023-06-01T01:39:55;101566.48;;;10.35;50.88
55044;BME280;54902;50.420;18.854;2023-06-01T01:40:26;101571.08;;;10.34;50.86
55044;BME280;54902;50.420;18.854;2023-06-01T01:40:57;101562.12;;;10.32;50.85
55044;BME280;54902;50.420;18.854;2023-06-01T01:41:28;101563.86;;;10.33;50.85
55044;BME280;54902;50.420;18.854;2023-06-01T01:41:59;101559.38;;;10.32;50.79
55044;BME280;54902;50.420;18.854;2023-06-01T01:42:30;101565.84;;;10.31;50.81
55044;BME280;54902;50.420;18.854;2023-06-01T01:43:02;101553.16;;;10.30;50.81
55044;BME280;54902;50.420;18.854;2023-06-01T01:43:33;101558.63;;;10.30;50.82
55044;BME280;54902;50.420;18.854;2023-06-01T01:44:05;101566.94;;;10.29;50.80
55044;BME280;54902;50.420;18.854;2023-06-01T01:44:36;101563.30;;;10.28;50.85
55044;BME280;54902;50.420;18.854;2023-06-01T01:45:08;101559.71;;;10.28;50.85
55044;BME280;54902;50.420;18.854;2023-06-01T01:45:39;101559.71;;;10.28;50.83
55044;BME280;54902;50.420;18.854;2023-06-01T01:46:21;101558.86;;;10.27;50.85
55044;BME280;54902;50.420;18.854;2023-06-01T01:47:00;101556.13;;;10.27;50.86
55044;BME280;54902;50.420;18.854;2023-06-01T01:48:31;101555.34;;;10.25;50.92
55044;BME280;54902;50.420;18.854;2023-06-01T01:49:50;101566.48;;;10.22;51.05
55044;BME280;54902;50.420;18.854;2023-06-01T01:50:32;101561.02;;;10.22;51.10
55044;BME280;54902;50.420;18.854;2023-06-01T01:51:10;101550.21;;;10.21;51.07
55044;BME280;54902;50.420;18.854;2023-06-01T01:52:49;101558.41;;;10.21;51.00
55044;BME280;54902;50.420;18.854;2023-06-01T01:53:14;101561.24;;;10.19;51.03
55044;BME280;54902;50.420;18.854;2023-06-01T01:53:51;101560.35;;;10.19;51.04
55044;BME280;54902;50.420;18.854;2023-06-01T01:54:27;101562.22;;;10.18;51.06
55044;BME280;54902;50.420;18.854;2023-06-01T01:55:02;101558.71;;;10.16;51.06
55044;BME280;54902;50.420;18.854;2023-06-01T01:55:35;101548.79;;;10.15;51.05
55044;BME280;54902;50.420;18.854;2023-06-01T01:56:07;101552.38;;;10.16;51.10
55044;BME280;54902;50.420;18.854;2023-06-01T01:56:39;101554.26;;;10.15;51.12
55044;BME280;54902;50.420;18.854;2023-06-01T01:57:13;101548.79;;;10.15;51.10
55044;BME280;54902;50.420;18.854;2023-06-01T01:57:45;101551.60;;;10.14;51.08
55044;BME280;54902;50.420;18.854;2023-06-01T01:58:17;101556.20;;;10.13;51.09
55044;BME280;54902;50.420;18.854;2023-06-01T01:58:49;101557.18;;;10.12;51.10
55044;BME280;54902;50.420;18.854;2023-06-01T01:59:29;101550.85;;;10.12;51.09
55044;BME280;54902;50.420;18.854;2023-06-01T02:00:06;101547.45;;;10.08;50.93
55044;BME280;54902;50.420;18.854;2023-06-01T02:00:41;101550.96;;;10.10;51.07
55044;BME280;54902;50.420;18.854;2023-06-01T02:01:14;101550.06;;;10.10;51.06
55044;BME280;54902;50.420;18.854;2023-06-01T02:01:46;101557.39;;;10.09;51.01
55044;BME280;54902;50.420;18.854;2023-06-01T02:02:17;101552.91;;;10.08;50.98
55044;BME280;54902;50.420;18.854;2023-06-01T02:02:49;101550.06;;;10.10;50.95
55044;BME280;54902;50.420;18.854;2023-06-01T02:03:20;101550.29;;;10.07;51.04
55044;BME280;54902;50.420;18.854;2023-06-01T02:04:03;101550.29;;;10.07;51.08
55044;BME280;54902;50.420;18.854;2023-06-01T02:04:41;101547.56;;;10.07;51.14
55044;BME280;54902;50.420;18.854;2023-06-01T02:05:12;101543.96;;;10.06;51.16
55044;BME280;54902;50.420;18.854;2023-06-01T02:05:43;101550.29;;;10.07;51.23
55044;BME280;54902;50.420;18.854;2023-06-01T02:06:14;101548.53;;;10.06;51.24
55044;BME280;54902;50.420;18.854;2023-06-01T02:06:45;101540.45;;;10.04;51.18
55044;BME280;54902;50.420;18.854;2023-06-01T02:07:16;101541.35;;;10.05;51.25
55044;BME280;54902;50.420;18.854;2023-06-01T02:07:47;101545.91;;;10.04;51.27
55044;BME280;54902;50.420;18.854;2023-06-01T02:08:18;101547.78;;;10.04;51.30
55044;BME280;54902;50.420;18.854;2023-06-01T02:08:49;101543.30;;;10.03;51.33
55044;BME280;54902;50.420;18.854;2023-06-01T02:09:20;101550.63;;;10.02;51.30
55044;BME280;54902;50.420;18.854;2023-06-01T02:09:51;101543.41;;;10.01;51.31
55044;BME280;54902;50.420;18.854;2023-06-01T02:10:22;101539.78;;;10.01;51.26
55044;BME280;54902;50.420;18.854;2023-06-01T02:10:56;101542.51;;;10.01;51.22
55044;BME280;54902;50.420;18.854;2023-06-01T02:11:27;101543.63;;;9.98;51.19
55044;BME280;54902;50.420;18.854;2023-06-01T02:11:58;101549.95;;;9.99;51.14
55044;BME280;54902;50.420;18.854;2023-06-01T02:12:29;101546.36;;;9.98;51.20
55044;BME280;54902;50.420;18.854;2023-06-01T02:13:00;101545.47;;;9.98;51.22
55044;BME280;54902;50.420;18.854;2023-06-01T02:13:31;101544.60;;;9.97;51.23
55044;BME280;54902;50.420;18.854;2023-06-01T02:14:02;101543.71;;;9.97;51.29
55044;BME280;54902;50.420;18.854;2023-06-01T02:14:33;101542.84;;;9.96;51.32
55044;BME280;54902;50.420;18.854;2023-06-01T02:15:06;101547.45;;;9.96;51.33
55044;BME280;54902;50.420;18.854;2023-06-01T02:15:37;101548.30;;;9.96;51.34
55044;BME280;54902;50.420;18.854;2023-06-01T02:16:08;101541.09;;;9.95;51.36
55044;BME280;54902;50.420;18.854;2023-06-01T02:16:39;101546.55;;;9.95;51.39
55044;BME280;54902;50.420;18.854;2023-06-01T02:17:10;101547.51;;;9.94;51.39
55044;BME280;54902;50.420;18.854;2023-06-01T02:17:40;101543.89;;;9.94;51.40
55044;BME280;54902;50.420;18.854;2023-06-01T02:18:13;101547.51;;;9.94;51.35
55044;BME280;54902;50.420;18.854;2023-06-01T02:18:48;101543.89;;;9.94;51.26
55044;BME280;54902;50.420;18.854;2023-06-01T02:19:19;101538.55;;;9.92;51.21
55044;BME280;54902;50.420;18.854;2023-06-01T02:19:50;101544.00;;;9.92;51.20
55044;BME280;54902;50.420;18.854;2023-06-01T02:20:21;101541.27;;;9.92;51.23
55044;BME280;54902;50.420;18.854;2023-06-01T02:20:52;101545.87;;;9.92;51.24
55044;BME280;54902;50.420;18.854;2023-06-01T02:21:24;101542.26;;;9.91;51.27
55044;BME280;54902;50.420;18.854;2023-06-01T02:21:55;101544.98;;;9.91;51.41
55044;BME280;54902;50.420;18.854;2023-06-01T02:22:26;101540.53;;;9.90;51.39
55044;BME280;54902;50.420;18.854;2023-06-01T02:22:57;101543.26;;;9.90;51.36
55044;BME280;54902;50.420;18.854;2023-06-01T02:23:28;101543.26;;;9.90;51.31
55044;BME280;54902;50.420;18.854;2023-06-01T02:23:58;101544.22;;;9.89;51.35
55044;BME280;54902;50.420;18.854;2023-06-01T02:24:37;101544.22;;;9.89;51.39
55044;BME280;54902;50.420;18.854;2023-06-01T02:25:08;101545.19;;;9.88;51.40
55044;BME280;54902;50.420;18.854;2023-06-01T02:25:40;101541.49;;;9.89;51.36
55044;BME280;54902;50.420;18.854;2023-06-01T02:26:11;101543.34;;;9.89;51.38
55044;BME280;54902;50.420;18.854;2023-06-01T02:26:42;101537.87;;;9.89;51.41
55044;BME280;54902;50.420;18.854;2023-06-01T02:27:13;101538.88;;;9.88;51.44
55044;BME280;54902;50.420;18.854;2023-06-01T02:27:44;101540.70;;;9.87;51.44
55044;BME280;54902;50.420;18.854;2023-06-01T02:28:15;101537.98;;;9.87;51.36
55044;BME280;54902;50.420;18.854;2023-06-01T02:28:46;101537.98;;;9.87;51.41
55044;BME280;54902;50.420;18.854;2023-06-01T02:29:18;101544.41;;;9.86;51.46
55044;BME280;54902;50.420;18.854;2023-06-01T02:29:52;101540.81;;;9.86;51.23
55044;BME280;54902;50.420;18.854;2023-06-01T02:30:23;101541.68;;;9.86;51.46
55044;BME280;54902;50.420;18.854;2023-06-01T02:30:54;101532.74;;;9.84;51.41
55044;BME280;54902;50.420;18.854;2023-06-01T02:31:25;101539.05;;;9.85;51.37
55044;BME280;54902;50.420;18.854;2023-06-01T02:31:56;101532.74;;;9.84;51.40
55044;BME280;54902;50.420;18.854;2023-06-01T02:32:27;101545.52;;;9.84;51.43
55044;BME280;54902;50.420;18.854;2023-06-01T02:33:02;101536.45;;;9.83;51.47
55044;BME280;54902;50.420;18.854;2023-06-01T02:33:33;101541.90;;;9.83;51.57
55044;BME280;54902;50.420;18.854;2023-06-01T02:34:05;101540.14;;;9.83;51.56
55044;BME280;54902;50.420;18.854;2023-06-01T02:34:36;101539.28;;;9.82;51.55
55044;BME280;54902;50.420;18.854;2023-06-01T02:35:08;101544.74;;;9.82;51.53
55044;BME280;54902;50.420;18.854;2023-06-01T02:35:39;101538.42;;;9.82;51.57
55044;BME280;54902;50.420;18.854;2023-06-01T02:36:10;101531.21;;;9.81;51.57
55044;BME280;54902;50.420;18.854;2023-06-01T02:36:41;101539.28;;;9.82;51.53
55044;BME280;54902;50.420;18.854;2023-06-01T02:37:13;101541.15;;;9.82;51.55
55044;BME280;54902;50.420;18.854;2023-06-01T02:37:44;101536.67;;;9.81;51.59
55044;BME280;54902;50.420;18.854;2023-06-01T02:38:15;101529.45;;;9.80;51.60
55044;BME280;54902;50.420;18.854;2023-06-01T02:38:46;101530.42;;;9.79;51.54
55044;BME280;54902;50.420;18.854;2023-06-01T02:39:17;101533.16;;;9.79;51.50
55044;BME280;54902;50.420;18.854;2023-06-01T02:39:48;101533.16;;;9.79;51.50
55044;BME280;54902;50.420;18.854;2023-06-01T02:40:20;101535.98;;;9.77;51.47
55044;BME280;54902;50.420;18.854;2023-06-01T02:40:51;101536.88;;;9.78;51.53
55044;BME280;54902;50.420;18.854;2023-06-01T02:41:22;101536.88;;;9.78;51.55
55044;BME280;54902;50.420;18.854;2023-06-01T02:41:53;101532.40;;;9.77;51.59
55044;BME280;54902;50.420;18.854;2023-06-01T02:42:24;101530.52;;;9.77;51.62
55044;BME280;54902;50.420;18.854;2023-06-01T02:42:55;101540.59;;;9.77;51.65
55044;BME280;54902;50.420;18.854;2023-06-01T02:43:26;101529.67;;;9.77;51.66
55044;BME280;54902;50.420;18.854;2023-06-01T02:43:56;101529.67;;;9.77;51.65
55044;BME280;54902;50.420;18.854;2023-06-01T02:44:27;101535.98;;;9.77;51.60
55044;BME280;54902;50.420;18.854;2023-06-01T02:44:58;101535.12;;;9.77;51.61
55044;BME280;54902;50.420;18.854;2023-06-01T02:45:29;101529.67;;;9.77;51.54
55044;BME280;54902;50.420;18.854;2023-06-01T02:46:00;101533.26;;;9.77;51.63
55044;BME280;54902;50.420;18.854;2023-06-01T02:46:31;101535.12;;;9.77;51.54
55044;BME280;54902;50.420;18.854;2023-06-01T02:47:02;101529.67;;;9.77;51.54
55044;BME280;54902;50.420;18.854;2023-06-01T02:47:33;101533.36;;;9.76;51.60
55044;BME280;54902;50.420;18.854;2023-06-01T02:48:05;101525.18;;;9.76;51.68
55044;BME280;54902;50.420;18.854;2023-06-01T02:48:35;101529.67;;;9.77;51.75
55044;BME280;54902;50.420;18.854;2023-06-01T02:49:06;101527.91;;;9.76;51.63
55044;BME280;54902;50.420;18.854;2023-06-01T02:49:37;101527.91;;;9.76;51.62
55044;BME280;54902;50.420;18.854;2023-06-01T02:50:09;101526.16;;;9.75;51.67
55044;BME280;54902;50.420;18.854;2023-06-01T02:50:41;101527.91;;;9.76;51.71
55044;BME280;54902;50.420;18.854;2023-06-01T02:51:12;101527.91;;;9.76;51.63
55044;BME280;54902;50.420;18.854;2023-06-01T02:51:43;101524.33;;;9.75;51.61
55044;BME280;54902;50.420;18.854;2023-06-01T02:52:14;101528.89;;;9.75;51.66
55044;BME280;54902;50.420;18.854;2023-06-01T02:52:46;101533.36;;;9.76;51.64
55044;BME280;54902;50.420;18.854;2023-06-01T02:53:17;101520.70;;;9.75;51.63
55044;BME280;54902;50.420;18.854;2023-06-01T02:53:48;101526.16;;;9.75;51.59
55044;BME280;54902;50.420;18.854;2023-06-01T02:54:19;101518.97;;;9.74;51.58
55044;BME280;54902;50.420;18.854;2023-06-01T02:54:50;101527.05;;;9.75;51.64
55044;BME280;54902;50.420;18.854;2023-06-01T02:55:21;101525.30;;;9.74;51.65
55044;BME280;54902;50.420;18.854;2023-06-01T02:55:52;101530.75;;;9.74;51.65
55044;BME280;54902;50.420;18.854;2023-06-01T02:56:23;101528.02;;;9.74;51.63
55044;BME280;54902;50.420;18.854;2023-06-01T02:56:54;101530.75;;;9.74;51.63
55044;BME280;54902;50.420;18.854;2023-06-01T02:57:25;101522.57;;;9.74;51.65
55044;BME280;54902;50.420;18.854;2023-06-01T02:57:56;101526.27;;;9.73;51.65
55044;BME280;54902;50.420;18.854;2023-06-01T02:58:27;101530.75;;;9.74;51.68
55044;BME280;54902;50.420;18.854;2023-06-01T02:58:59;101529.89;;;9.74;51.66
55044;BME280;54902;50.420;18.854;2023-06-01T02:59:31;101520.81;;;9.73;51.70
55044;BME280;54902;50.420;18.854;2023-06-01T03:00:02;101530.86;;;9.73;51.68
55044;BME280;54902;50.420;18.854;2023-06-01T03:00:40;101529.89;;;9.74;51.69
55044;BME280;54902;50.420;18.854;2023-06-01T03:01:14;101528.99;;;9.73;51.68